Rockland, Massachusetts
Current Conditions -  °F | °C
As of 8:53 AM on Thursday 27 Nov 2014 (Local Time) from KOWD Reporting Station
Overcast Overcast  
Wind Chill: 30°   Ceiling: 3000
Heat Index: 35°   Visibility: 10mi
Dew Point: 31°   Wind: 6mph
Humidity: 85%   Direction: 290°WNW
Pressure: 29.93"   Gusts: NA
Location:  42.13°N, 70.92°W
Report Text: KOWD 271353Z 29005KT 10SM OVC030 02/M01 A2993 RMK AO2 SLP136 T00171006 $
Loading
Personal Weather Stations






























Interactive Weather Map New forecast layout! Learn more

10-Day Weather Forecast

Advertisements
Track Severe Weather on mobile